sensor_id;sensor_type;location;lat;lon;timestamp;P1;durP1;ratioP1;P2;durP2;ratioP2
66856;SDS011;53766;50.280;19.160;2023-05-10T00:01:32;8.90;;;2.67;;
66856;SDS011;53766;50.280;19.160;2023-05-10T00:03:59;4.20;;;2.35;;
66856;SDS011;53766;50.280;19.160;2023-05-10T00:06:27;4.45;;;2.42;;
66856;SDS011;53766;50.280;19.160;2023-05-10T00:08:54;4.38;;;2.63;;
66856;SDS011;53766;50.280;19.160;2023-05-10T00:11:22;4.53;;;2.58;;
66856;SDS011;53766;50.280;19.160;2023-05-10T00:13:49;4.28;;;2.58;;
66856;SDS011;53766;50.280;19.160;2023-05-10T00:16:17;3.92;;;2.28;;
66856;SDS011;53766;50.280;19.160;2023-05-10T00:18:44;5.78;;;2.30;;
66856;SDS011;53766;50.280;19.160;2023-05-10T00:21:11;4.10;;;2.60;;
66856;SDS011;53766;50.280;19.160;2023-05-10T00:23:39;3.97;;;2.30;;
66856;SDS011;53766;50.280;19.160;2023-05-10T00:26:07;4.45;;;2.35;;
66856;SDS011;53766;50.280;19.160;2023-05-10T00:28:34;4.18;;;2.40;;
66856;SDS011;53766;50.280;19.160;2023-05-10T00:31:01;4.32;;;2.47;;
66856;SDS011;53766;50.280;19.160;2023-05-10T00:33:29;4.20;;;2.08;;
66856;SDS011;53766;50.280;19.160;2023-05-10T00:35:56;4.32;;;2.25;;
66856;SDS011;53766;50.280;19.160;2023-05-10T00:38:24;5.15;;;2.67;;
66856;SDS011;53766;50.280;19.160;2023-05-10T00:40:51;5.50;;;2.58;;
66856;SDS011;53766;50.280;19.160;2023-05-10T00:43:18;3.20;;;2.20;;
66856;SDS011;53766;50.280;19.160;2023-05-10T00:45:46;4.43;;;2.70;;
66856;SDS011;53766;50.280;19.160;2023-05-10T00:48:14;3.92;;;2.60;;
66856;SDS011;53766;50.280;19.160;2023-05-10T00:50:41;3.80;;;2.47;;
66856;SDS011;53766;50.280;19.160;2023-05-10T00:53:08;3.45;;;2.10;;
66856;SDS011;53766;50.280;19.160;2023-05-10T00:55:37;4.85;;;2.80;;
66856;SDS011;53766;50.280;19.160;2023-05-10T00:58:04;4.00;;;2.40;;
66856;SDS011;53766;50.280;19.160;2023-05-10T01:00:33;4.43;;;2.28;;
66856;SDS011;53766;50.280;19.160;2023-05-10T01:03:01;3.40;;;2.20;;
66856;SDS011;53766;50.280;19.160;2023-05-10T01:05:29;3.70;;;2.42;;
66856;SDS011;53766;50.280;19.160;2023-05-10T01:07:57;4.65;;;2.65;;
66856;SDS011;53766;50.280;19.160;2023-05-10T01:10:25;4.60;;;2.70;;
66856;SDS011;53766;50.280;19.160;2023-05-10T01:12:52;6.18;;;2.70;;
66856;SDS011;53766;50.280;19.160;2023-05-10T01:15:20;3.83;;;2.50;;
66856;SDS011;53766;50.280;19.160;2023-05-10T01:17:48;3.45;;;2.13;;
66856;SDS011;53766;50.280;19.160;2023-05-10T01:20:16;4.10;;;2.42;;
66856;SDS011;53766;50.280;19.160;2023-05-10T01:26:14;4.63;;;2.60;;
66856;SDS011;53766;50.280;19.160;2023-05-10T01:29:22;3.45;;;2.47;;
66856;SDS011;53766;50.280;19.160;2023-05-10T01:34:48;4.72;;;2.63;;
66856;SDS011;53766;50.280;19.160;2023-05-10T01:37:29;3.80;;;2.58;;
66856;SDS011;53766;50.280;19.160;2023-05-10T01:40:08;3.83;;;2.53;;
66856;SDS011;53766;50.280;19.160;2023-05-10T01:42:51;3.42;;;2.30;;
66856;SDS011;53766;50.280;19.160;2023-05-10T01:45:24;5.13;;;2.70;;
66856;SDS011;53766;50.280;19.160;2023-05-10T01:48:05;4.68;;;2.60;;
66856;SDS011;53766;50.280;19.160;2023-05-10T01:50:35;3.92;;;2.22;;
66856;SDS011;53766;50.280;19.160;2023-05-10T01:53:09;3.63;;;2.55;;
66856;SDS011;53766;50.280;19.160;2023-05-10T01:55:39;4.13;;;2.67;;
66856;SDS011;53766;50.280;19.160;2023-05-10T01:58:15;3.65;;;2.50;;
66856;SDS011;53766;50.280;19.160;2023-05-10T02:00:46;6.32;;;2.70;;
66856;SDS011;53766;50.280;19.160;2023-05-10T02:03:16;4.32;;;2.47;;
66856;SDS011;53766;50.280;19.160;2023-05-10T02:05:48;4.32;;;2.53;;
66856;SDS011;53766;50.280;19.160;2023-05-10T02:08:17;3.70;;;2.47;;
66856;SDS011;53766;50.280;19.160;2023-05-10T02:10:45;4.10;;;2.53;;
66856;SDS011;53766;50.280;19.160;2023-05-10T02:13:16;3.53;;;2.47;;
66856;SDS011;53766;50.280;19.160;2023-05-10T02:15:48;4.25;;;2.55;;
66856;SDS011;53766;50.280;19.160;2023-05-10T02:18:17;4.38;;;2.50;;
66856;SDS011;53766;50.280;19.160;2023-05-10T02:20:45;4.03;;;2.70;;
66856;SDS011;53766;50.280;19.160;2023-05-10T02:23:14;3.90;;;2.60;;
66856;SDS011;53766;50.280;19.160;2023-05-10T02:25:44;4.80;;;2.70;;
66856;SDS011;53766;50.280;19.160;2023-05-10T02:28:13;5.22;;;2.63;;
66856;SDS011;53766;50.280;19.160;2023-05-10T02:30:42;3.92;;;2.55;;
66856;SDS011;53766;50.280;19.160;2023-05-10T02:33:10;3.80;;;2.42;;
66856;SDS011;53766;50.280;19.160;2023-05-10T02:35:38;4.47;;;2.50;;
66856;SDS011;53766;50.280;19.160;2023-05-10T02:38:07;4.85;;;2.53;;
66856;SDS011;53766;50.280;19.160;2023-05-10T02:40:36;3.85;;;2.17;;
66856;SDS011;53766;50.280;19.160;2023-05-10T02:43:04;3.15;;;2.30;;
66856;SDS011;53766;50.280;19.160;2023-05-10T02:45:33;4.72;;;2.70;;
66856;SDS011;53766;50.280;19.160;2023-05-10T02:48:03;4.60;;;2.40;;
66856;SDS011;53766;50.280;19.160;2023-05-10T02:50:31;3.92;;;2.50;;
66856;SDS011;53766;50.280;19.160;2023-05-10T02:53:01;5.53;;;2.72;;
66856;SDS011;53766;50.280;19.160;2023-05-10T02:55:35;5.55;;;2.95;;
66856;SDS011;53766;50.280;19.160;2023-05-10T02:58:05;4.15;;;2.80;;
66856;SDS011;53766;50.280;19.160;2023-05-10T03:00:32;3.63;;;2.35;;
66856;SDS011;53766;50.280;19.160;2023-05-10T03:03:00;5.55;;;2.70;;
66856;SDS011;53766;50.280;19.160;2023-05-10T03:05:27;5.28;;;2.53;;
66856;SDS011;53766;50.280;19.160;2023-05-10T03:07:55;4.55;;;2.40;;
66856;SDS011;53766;50.280;19.160;2023-05-10T03:10:25;3.72;;;2.38;;
66856;SDS011;53766;50.280;19.160;2023-05-10T03:12:57;6.50;;;2.50;;
66856;SDS011;53766;50.280;19.160;2023-05-10T03:15:32;4.15;;;2.70;;
66856;SDS011;53766;50.280;19.160;2023-05-10T03:18:09;5.15;;;2.80;;
66856;SDS011;53766;50.280;19.160;2023-05-10T03:20:43;4.93;;;2.58;;
66856;SDS011;53766;50.280;19.160;2023-05-10T03:25:46;7.20;;;3.13;;
66856;SDS011;53766;50.280;19.160;2023-05-10T03:28:15;4.30;;;2.88;;
66856;SDS011;53766;50.280;19.160;2023-05-10T03:30:44;3.70;;;2.47;;
66856;SDS011;53766;50.280;19.160;2023-05-10T03:33:13;4.70;;;2.53;;
66856;SDS011;53766;50.280;19.160;2023-05-10T03:35:41;5.78;;;2.85;;
66856;SDS011;53766;50.280;19.160;2023-05-10T03:38:08;5.05;;;2.75;;
66856;SDS011;53766;50.280;19.160;2023-05-10T03:40:36;4.65;;;2.83;;
66856;SDS011;53766;50.280;19.160;2023-05-10T03:43:03;5.38;;;2.83;;
66856;SDS011;53766;50.280;19.160;2023-05-10T03:45:31;3.35;;;2.30;;
66856;SDS011;53766;50.280;19.160;2023-05-10T03:47:58;5.50;;;2.50;;
66856;SDS011;53766;50.280;19.160;2023-05-10T03:50:26;4.65;;;2.60;;
66856;SDS011;53766;50.280;19.160;2023-05-10T03:52:53;4.68;;;2.80;;
66856;SDS011;53766;50.280;19.160;2023-05-10T03:55:21;4.20;;;2.60;;
66856;SDS011;53766;50.280;19.160;2023-05-10T03:57:49;5.22;;;2.50;;
66856;SDS011;53766;50.280;19.160;2023-05-10T04:00:16;5.30;;;2.85;;
66856;SDS011;53766;50.280;19.160;2023-05-10T04:02:44;3.88;;;2.50;;
66856;SDS011;53766;50.280;19.160;2023-05-10T04:05:12;5.35;;;2.78;;
66856;SDS011;53766;50.280;19.160;2023-05-10T04:07:40;5.43;;;2.90;;
66856;SDS011;53766;50.280;19.160;2023-05-10T04:10:07;4.57;;;2.65;;
66856;SDS011;53766;50.280;19.160;2023-05-10T04:12:35;4.80;;;2.58;;
66856;SDS011;53766;50.280;19.160;2023-05-10T04:15:02;3.85;;;2.38;;
66856;SDS011;53766;50.280;19.160;2023-05-10T04:17:30;3.78;;;2.50;;
66856;SDS011;53766;50.280;19.160;2023-05-10T04:19:58;4.38;;;2.40;;
66856;SDS011;53766;50.280;19.160;2023-05-10T04:22:25;4.20;;;2.55;;
66856;SDS011;53766;50.280;19.160;2023-05-10T04:24:54;5.60;;;3.45;;
66856;SDS011;53766;50.280;19.160;2023-05-10T04:27:22;4.90;;;2.88;;
66856;SDS011;53766;50.280;19.160;2023-05-10T04:29:49;4.07;;;2.50;;
66856;SDS011;53766;50.280;19.160;2023-05-10T04:32:18;4.90;;;2.83;;
66856;SDS011;53766;50.280;19.160;2023-05-10T04:34:46;3.88;;;2.55;;
66856;SDS011;53766;50.280;19.160;2023-05-10T04:37:13;4.57;;;2.90;;
66856;SDS011;53766;50.280;19.160;2023-05-10T04:39:41;5.95;;;2.53;;
66856;SDS011;53766;50.280;19.160;2023-05-10T04:42:08;5.20;;;2.55;;
66856;SDS011;53766;50.280;19.160;2023-05-10T04:44:36;11.07;;;4.30;;
66856;SDS011;53766;50.280;19.160;2023-05-10T04:47:03;14.75;;;4.30;;
66856;SDS011;53766;50.280;19.160;2023-05-10T04:49:31;18.08;;;4.68;;
66856;SDS011;53766;50.280;19.160;2023-05-10T04:51:59;14.52;;;4.53;;
66856;SDS011;53766;50.280;19.160;2023-05-10T04:54:26;16.80;;;4.57;;
66856;SDS011;53766;50.280;19.160;2023-05-10T04:56:54;10.45;;;4.03;;
66856;SDS011;53766;50.280;19.160;2023-05-10T04:59:21;10.85;;;4.53;;
66856;SDS011;53766;50.280;19.160;2023-05-10T05:01:49;13.82;;;4.63;;
66856;SDS011;53766;50.280;19.160;2023-05-10T05:04:16;13.07;;;5.38;;
66856;SDS011;53766;50.280;19.160;2023-05-10T05:06:44;18.20;;;4.88;;
66856;SDS011;53766;50.280;19.160;2023-05-10T05:09:11;13.40;;;5.18;;
66856;SDS011;53766;50.280;19.160;2023-05-10T05:11:39;11.63;;;4.57;;
66856;SDS011;53766;50.280;19.160;2023-05-10T05:14:07;11.57;;;4.63;;
66856;SDS011;53766;50.280;19.160;2023-05-10T05:16:34;18.50;;;5.22;;
66856;SDS011;53766;50.280;19.160;2023-05-10T05:19:02;9.68;;;4.55;;
66856;SDS011;53766;50.280;19.160;2023-05-10T05:21:30;10.95;;;4.47;;
66856;SDS011;53766;50.280;19.160;2023-05-10T05:23:59;12.27;;;4.50;;
66856;SDS011;53766;50.280;19.160;2023-05-10T05:26:26;8.85;;;4.43;;
66856;SDS011;53766;50.280;19.160;2023-05-10T05:28:54;7.40;;;4.50;;
66856;SDS011;53766;50.280;19.160;2023-05-10T05:31:22;9.30;;;4.65;;
66856;SDS011;53766;50.280;19.160;2023-05-10T05:33:49;7.70;;;4.25;;
66856;SDS011;53766;50.280;19.160;2023-05-10T05:36:17;10.13;;;4.10;;
66856;SDS011;53766;50.280;19.160;2023-05-10T05:38:44;12.63;;;4.68;;
66856;SDS011;53766;50.280;19.160;2023-05-10T05:41:12;12.30;;;4.55;;
66856;SDS011;53766;50.280;19.160;2023-05-10T05:43:39;8.95;;;4.50;;
66856;SDS011;53766;50.280;19.160;2023-05-10T05:46:07;11.32;;;4.30;;
66856;SDS011;53766;50.280;19.160;2023-05-10T05:48:35;7.65;;;3.60;;
66856;SDS011;53766;50.280;19.160;2023-05-10T05:51:03;10.77;;;4.15;;
66856;SDS011;53766;50.280;19.160;2023-05-10T05:53:33;9.65;;;3.80;;
66856;SDS011;53766;50.280;19.160;2023-05-10T05:56:00;9.13;;;4.20;;
66856;SDS011;53766;50.280;19.160;2023-05-10T05:58:28;7.38;;;4.13;;
66856;SDS011;53766;50.280;19.160;2023-05-10T06:00:56;7.55;;;4.03;;
66856;SDS011;53766;50.280;19.160;2023-05-10T06:03:24;10.73;;;3.85;;
66856;SDS011;53766;50.280;19.160;2023-05-10T06:05:51;8.77;;;4.43;;
66856;SDS011;53766;50.280;19.160;2023-05-10T06:08:19;9.48;;;4.15;;
66856;SDS011;53766;50.280;19.160;2023-05-10T06:10:47;8.98;;;4.43;;
66856;SDS011;53766;50.280;19.160;2023-05-10T06:13:14;8.65;;;4.00;;
66856;SDS011;53766;50.280;19.160;2023-05-10T06:15:42;7.60;;;4.05;;
66856;SDS011;53766;50.280;19.160;2023-05-10T06:18:10;8.32;;;4.32;;
66856;SDS011;53766;50.280;19.160;2023-05-10T06:20:37;8.70;;;4.45;;
66856;SDS011;53766;50.280;19.160;2023-05-10T06:23:04;10.68;;;4.07;;
66856;SDS011;53766;50.280;19.160;2023-05-10T06:25:32;10.65;;;4.22;;
66856;SDS011;53766;50.280;19.160;2023-05-10T06:27:59;8.43;;;4.00;;
66856;SDS011;53766;50.280;19.160;2023-05-10T06:30:27;5.60;;;3.50;;
66856;SDS011;53766;50.280;19.160;2023-05-10T06:32:56;7.90;;;4.03;;
66856;SDS011;53766;50.280;19.160;2023-05-10T06:35:24;7.75;;;4.35;;
66856;SDS011;53766;50.280;19.160;2023-05-10T06:37:52;7.75;;;4.22;;
66856;SDS011;53766;50.280;19.160;2023-05-10T06:40:19;8.60;;;3.60;;
66856;SDS011;53766;50.280;19.160;2023-05-10T06:42:47;10.85;;;3.75;;
66856;SDS011;53766;50.280;19.160;2023-05-10T06:45:15;8.57;;;3.67;;
66856;SDS011;53766;50.280;19.160;2023-05-10T06:47:43;7.63;;;3.95;;
66856;SDS011;53766;50.280;19.160;2023-05-10T06:50:11;7.50;;;3.63;;
66856;SDS011;53766;50.280;19.160;2023-05-10T06:52:40;7.20;;;4.10;;
66856;SDS011;53766;50.280;19.160;2023-05-10T06:55:07;6.85;;;3.45;;
66856;SDS011;53766;50.280;19.160;2023-05-10T06:57:35;8.00;;;3.80;;
66856;SDS011;53766;50.280;19.160;2023-05-10T07:00:03;8.15;;;4.00;;
66856;SDS011;53766;50.280;19.160;2023-05-10T07:02:31;6.68;;;3.47;;
66856;SDS011;53766;50.280;19.160;2023-05-10T07:04:59;6.60;;;3.42;;
66856;SDS011;53766;50.280;19.160;2023-05-10T07:07:41;8.90;;;3.65;;
66856;SDS011;53766;50.280;19.160;2023-05-10T07:10:08;6.18;;;3.78;;
66856;SDS011;53766;50.280;19.160;2023-05-10T07:12:37;8.90;;;4.15;;
66856;SDS011;53766;50.280;19.160;2023-05-10T07:15:05;10.55;;;4.10;;
66856;SDS011;53766;50.280;19.160;2023-05-10T07:17:33;7.18;;;3.80;;
66856;SDS011;53766;50.280;19.160;2023-05-10T07:20:01;7.90;;;3.75;;
66856;SDS011;53766;50.280;19.160;2023-05-10T07:22:30;7.60;;;3.83;;
66856;SDS011;53766;50.280;19.160;2023-05-10T07:24:57;6.35;;;3.53;;
66856;SDS011;53766;50.280;19.160;2023-05-10T07:27:25;7.25;;;3.47;;
66856;SDS011;53766;50.280;19.160;2023-05-10T07:29:52;9.60;;;3.75;;
66856;SDS011;53766;50.280;19.160;2023-05-10T07:32:20;5.95;;;3.33;;
66856;SDS011;53766;50.280;19.160;2023-05-10T07:34:48;5.95;;;3.72;;
66856;SDS011;53766;50.280;19.160;2023-05-10T07:37:16;7.35;;;3.72;;
66856;SDS011;53766;50.280;19.160;2023-05-10T07:39:43;6.20;;;3.28;;
66856;SDS011;53766;50.280;19.160;2023-05-10T07:42:11;6.93;;;3.40;;
66856;SDS011;53766;50.280;19.160;2023-05-10T07:44:38;6.32;;;3.38;;
66856;SDS011;53766;50.280;19.160;2023-05-10T07:47:06;6.07;;;3.40;;
66856;SDS011;53766;50.280;19.160;2023-05-10T07:49:33;5.05;;;3.22;;
66856;SDS011;53766;50.280;19.160;2023-05-10T07:52:02;6.18;;;3.55;;
66856;SDS011;53766;50.280;19.160;2023-05-10T07:54:30;5.25;;;3.15;;
66856;SDS011;53766;50.280;19.160;2023-05-10T07:56:59;7.72;;;4.32;;
66856;SDS011;53766;50.280;19.160;2023-05-10T07:59:27;6.63;;;3.80;;
66856;SDS011;53766;50.280;19.160;2023-05-10T08:01:54;6.97;;;3.10;;
66856;SDS011;53766;50.280;19.160;2023-05-10T08:04:23;6.63;;;3.65;;
66856;SDS011;53766;50.280;19.160;2023-05-10T08:06:51;9.60;;;3.50;;
66856;SDS011;53766;50.280;19.160;2023-05-10T08:09:18;7.88;;;3.80;;
66856;SDS011;53766;50.280;19.160;2023-05-10T08:11:50;6.72;;;3.50;;
66856;SDS011;53766;50.280;19.160;2023-05-10T08:14:18;5.47;;;3.40;;
66856;SDS011;53766;50.280;19.160;2023-05-10T08:16:45;4.70;;;3.40;;
66856;SDS011;53766;50.280;19.160;2023-05-10T08:19:13;4.55;;;3.10;;
66856;SDS011;53766;50.280;19.160;2023-05-10T08:21:40;6.05;;;3.28;;
66856;SDS011;53766;50.280;19.160;2023-05-10T08:24:09;5.80;;;3.55;;
66856;SDS011;53766;50.280;19.160;2023-05-10T08:26:36;5.38;;;3.05;;
66856;SDS011;53766;50.280;19.160;2023-05-10T08:29:04;4.43;;;3.08;;
66856;SDS011;53766;50.280;19.160;2023-05-10T08:31:31;6.28;;;3.53;;
66856;SDS011;53766;50.280;19.160;2023-05-10T08:33:59;4.60;;;2.72;;
66856;SDS011;53766;50.280;19.160;2023-05-10T08:36:27;5.18;;;3.15;;
66856;SDS011;53766;50.280;19.160;2023-05-10T08:38:56;6.55;;;3.05;;
66856;SDS011;53766;50.280;19.160;2023-05-10T08:41:23;7.15;;;3.25;;
66856;SDS011;53766;50.280;19.160;2023-05-10T08:43:53;5.00;;;3.30;;
66856;SDS011;53766;50.280;19.160;2023-05-10T08:46:21;5.13;;;3.25;;
66856;SDS011;53766;50.280;19.160;2023-05-10T08:48:50;6.97;;;3.45;;
66856;SDS011;53766;50.280;19.160;2023-05-10T08:51:19;5.18;;;2.90;;
66856;SDS011;53766;50.280;19.160;2023-05-10T08:53:49;5.38;;;3.38;;
66856;SDS011;53766;50.280;19.160;2023-05-10T08:56:16;5.22;;;3.13;;
66856;SDS011;53766;50.280;19.160;2023-05-10T08:58:44;4.50;;;3.20;;
66856;SDS011;53766;50.280;19.160;2023-05-10T09:01:12;6.10;;;3.45;;
66856;SDS011;53766;50.280;19.160;2023-05-10T09:03:42;5.90;;;3.20;;
66856;SDS011;53766;50.280;19.160;2023-05-10T09:06:11;6.22;;;3.22;;
66856;SDS011;53766;50.280;19.160;2023-05-10T09:08:41;5.78;;;3.35;;
66856;SDS011;53766;50.280;19.160;2023-05-10T09:11:09;5.57;;;2.90;;
66856;SDS011;53766;50.280;19.160;2023-05-10T09:13:37;4.47;;;2.80;;
66856;SDS011;53766;50.280;19.160;2023-05-10T09:16:04;5.07;;;2.85;;
66856;SDS011;53766;50.280;19.160;2023-05-10T09:18:46;4.15;;;2.90;;
66856;SDS011;53766;50.280;19.160;2023-05-10T09:21:14;5.07;;;2.95;;
66856;SDS011;53766;50.280;19.160;2023-05-10T09:23:45;7.40;;;3.10;;
66856;SDS011;53766;50.280;19.160;2023-05-10T09:26:14;5.30;;;3.15;;
66856;SDS011;53766;50.280;19.160;2023-05-10T09:28:52;5.95;;;3.17;;
66856;SDS011;53766;50.280;19.160;2023-05-10T09:31:21;4.32;;;2.83;;
66856;SDS011;53766;50.280;19.160;2023-05-10T09:33:49;5.25;;;3.17;;
66856;SDS011;53766;50.280;19.160;2023-05-10T09:36:17;7.03;;;2.90;;
66856;SDS011;53766;50.280;19.160;2023-05-10T09:38:48;3.75;;;2.80;;
66856;SDS011;53766;50.280;19.160;2023-05-10T09:41:20;4.40;;;2.80;;
66856;SDS011;53766;50.280;19.160;2023-05-10T09:43:49;6.15;;;2.92;;
66856;SDS011;53766;50.280;19.160;2023-05-10T09:46:16;4.85;;;2.80;;
66856;SDS011;53766;50.280;19.160;2023-05-10T09:48:45;8.15;;;3.20;;
66856;SDS011;53766;50.280;19.160;2023-05-10T09:51:23;4.95;;;2.83;;
66856;SDS011;53766;50.280;19.160;2023-05-10T09:54:09;4.80;;;2.92;;
66856;SDS011;53766;50.280;19.160;2023-05-10T09:56:37;5.43;;;2.92;;
66856;SDS011;53766;50.280;19.160;2023-05-10T09:59:08;4.78;;;3.00;;
66856;SDS011;53766;50.280;19.160;2023-05-10T10:01:37;4.75;;;2.78;;
66856;SDS011;53766;50.280;19.160;2023-05-10T10:04:07;4.35;;;2.78;;
66856;SDS011;53766;50.280;19.160;2023-05-10T10:06:39;4.93;;;2.80;;
66856;SDS011;53766;50.280;19.160;2023-05-10T10:09:07;3.97;;;2.90;;
66856;SDS011;53766;50.280;19.160;2023-05-10T10:11:35;4.57;;;2.80;;
66856;SDS011;53766;50.280;19.160;2023-05-10T10:14:04;4.22;;;2.70;;
66856;SDS011;53766;50.280;19.160;2023-05-10T10:16:32;3.38;;;2.45;;
66856;SDS011;53766;50.280;19.160;2023-05-10T10:19:00;4.35;;;2.58;;
66856;SDS011;53766;50.280;19.160;2023-05-10T10:21:27;4.82;;;3.00;;
66856;SDS011;53766;50.280;19.160;2023-05-10T10:23:55;4.68;;;2.78;;
66856;SDS011;53766;50.280;19.160;2023-05-10T10:26:22;4.43;;;2.65;;
66856;SDS011;53766;50.280;19.160;2023-05-10T10:34:39;3.85;;;2.40;;
66856;SDS011;53766;50.280;19.160;2023-05-10T10:37:07;4.95;;;2.78;;
66856;SDS011;53766;50.280;19.160;2023-05-10T10:39:34;4.55;;;2.50;;
66856;SDS011;53766;50.280;19.160;2023-05-10T10:42:04;4.55;;;2.75;;
66856;SDS011;53766;50.280;19.160;2023-05-10T10:49:30;4.03;;;2.70;;
66856;SDS011;53766;50.280;19.160;2023-05-10T10:54:58;4.65;;;2.72;;
66856;SDS011;53766;50.280;19.160;2023-05-10T10:57:27;4.18;;;2.30;;
66856;SDS011;53766;50.280;19.160;2023-05-10T11:02:48;3.50;;;2.40;;
66856;SDS011;53766;50.280;19.160;2023-05-10T11:13:46;5.95;;;2.97;;
66856;SDS011;53766;50.280;19.160;2023-05-10T11:16:18;3.90;;;2.63;;
66856;SDS011;53766;50.280;19.160;2023-05-10T11:19:07;3.75;;;2.30;;
66856;SDS011;53766;50.280;19.160;2023-05-10T11:21:49;4.50;;;2.85;;
66856;SDS011;53766;50.280;19.160;2023-05-10T11:24:20;3.20;;;2.38;;
66856;SDS011;53766;50.280;19.160;2023-05-10T11:26:49;4.30;;;2.47;;
66856;SDS011;53766;50.280;19.160;2023-05-10T11:29:18;4.47;;;2.40;;
66856;SDS011;53766;50.280;19.160;2023-05-10T11:31:47;4.60;;;2.58;;
66856;SDS011;53766;50.280;19.160;2023-05-10T11:34:25;4.85;;;2.58;;
66856;SDS011;53766;50.280;19.160;2023-05-10T11:36:54;3.60;;;2.10;;
66856;SDS011;53766;50.280;19.160;2023-05-10T11:39:30;4.65;;;2.55;;
66856;SDS011;53766;50.280;19.160;2023-05-10T11:41:58;4.80;;;2.28;;
66856;SDS011;53766;50.280;19.160;2023-05-10T11:44:32;3.75;;;2.60;;
66856;SDS011;53766;50.280;19.160;2023-05-10T11:47:00;4.07;;;2.25;;
66856;SDS011;53766;50.280;19.160;2023-05-10T11:49:29;3.38;;;2.30;;
66856;SDS011;53766;50.280;19.160;2023-05-10T11:52:06;3.20;;;2.53;;
66856;SDS011;53766;50.280;19.160;2023-05-10T11:54:34;4.43;;;2.40;;
66856;SDS011;53766;50.280;19.160;2023-05-10T11:57:02;4.55;;;2.60;;
66856;SDS011;53766;50.280;19.160;2023-05-10T11:59:30;3.97;;;2.42;;
66856;SDS011;53766;50.280;19.160;2023-05-10T12:01:57;3.63;;;2.30;;
66856;SDS011;53766;50.280;19.160;2023-05-10T12:04:25;3.25;;;2.30;;
66856;SDS011;53766;50.280;19.160;2023-05-10T12:06:54;3.85;;;2.50;;
66856;SDS011;53766;50.280;19.160;2023-05-10T12:09:22;3.83;;;2.28;;
66856;SDS011;53766;50.280;19.160;2023-05-10T12:11:55;4.22;;;2.38;;
66856;SDS011;53766;50.280;19.160;2023-05-10T12:14:24;3.00;;;1.85;;
66856;SDS011;53766;50.280;19.160;2023-05-10T12:16:56;3.30;;;1.85;;
66856;SDS011;53766;50.280;19.160;2023-05-10T12:19:24;4.03;;;2.50;;
66856;SDS011;53766;50.280;19.160;2023-05-10T12:21:51;4.60;;;2.38;;
66856;SDS011;53766;50.280;19.160;2023-05-10T12:24:19;5.07;;;2.20;;
66856;SDS011;53766;50.280;19.160;2023-05-10T12:26:48;3.30;;;2.20;;
66856;SDS011;53766;50.280;19.160;2023-05-10T12:29:17;3.90;;;2.42;;
66856;SDS011;53766;50.280;19.160;2023-05-10T12:31:50;4.03;;;2.10;;
66856;SDS011;53766;50.280;19.160;2023-05-10T12:34:25;3.65;;;2.33;;
66856;SDS011;53766;50.280;19.160;2023-05-10T12:36:54;2.90;;;2.00;;
66856;SDS011;53766;50.280;19.160;2023-05-10T12:39:22;4.05;;;2.47;;
66856;SDS011;53766;50.280;19.160;2023-05-10T12:41:50;3.08;;;2.03;;
66856;SDS011;53766;50.280;19.160;2023-05-10T12:44:18;3.00;;;2.03;;
66856;SDS011;53766;50.280;19.160;2023-05-10T12:46:46;3.47;;;2.05;;
66856;SDS011;53766;50.280;19.160;2023-05-10T12:49:13;3.10;;;2.15;;
66856;SDS011;53766;50.280;19.160;2023-05-10T12:51:41;3.53;;;2.30;;
66856;SDS011;53766;50.280;19.160;2023-05-10T12:54:09;3.03;;;2.30;;
66856;SDS011;53766;50.280;19.160;2023-05-10T12:56:36;4.00;;;2.25;;
66856;SDS011;53766;50.280;19.160;2023-05-10T12:59:04;3.30;;;2.17;;
66856;SDS011;53766;50.280;19.160;2023-05-10T13:01:31;3.60;;;2.10;;
66856;SDS011;53766;50.280;19.160;2023-05-10T13:03:59;4.05;;;2.13;;
66856;SDS011;53766;50.280;19.160;2023-05-10T13:06:27;3.10;;;2.20;;
66856;SDS011;53766;50.280;19.160;2023-05-10T13:08:54;3.45;;;2.40;;
66856;SDS011;53766;50.280;19.160;2023-05-10T13:11:21;3.72;;;2.10;;
66856;SDS011;53766;50.280;19.160;2023-05-10T13:13:49;3.22;;;2.22;;
66856;SDS011;53766;50.280;19.160;2023-05-10T13:16:16;2.72;;;2.10;;
66856;SDS011;53766;50.280;19.160;2023-05-10T13:18:44;5.07;;;2.35;;
66856;SDS011;53766;50.280;19.160;2023-05-10T13:21:11;3.05;;;2.13;;
66856;SDS011;53766;50.280;19.160;2023-05-10T13:23:39;3.60;;;2.30;;
66856;SDS011;53766;50.280;19.160;2023-05-10T13:26:06;3.60;;;2.20;;
66856;SDS011;53766;50.280;19.160;2023-05-10T13:28:34;2.90;;;2.00;;
66856;SDS011;53766;50.280;19.160;2023-05-10T13:31:01;2.72;;;2.03;;
66856;SDS011;53766;50.280;19.160;2023-05-10T13:33:29;3.28;;;2.30;;
66856;SDS011;53766;50.280;19.160;2023-05-10T13:35:56;2.78;;;1.90;;
66856;SDS011;53766;50.280;19.160;2023-05-10T13:38:24;3.70;;;2.40;;
66856;SDS011;53766;50.280;19.160;2023-05-10T13:40:51;3.03;;;2.15;;
66856;SDS011;53766;50.280;19.160;2023-05-10T13:43:20;3.80;;;2.00;;
66856;SDS011;53766;50.280;19.160;2023-05-10T13:45:47;3.40;;;2.13;;
66856;SDS011;53766;50.280;19.160;2023-05-10T13:48:14;3.45;;;2.10;;
66856;SDS011;53766;50.280;19.160;2023-05-10T13:50:42;3.10;;;2.00;;
66856;SDS011;53766;50.280;19.160;2023-05-10T13:53:10;2.65;;;1.90;;
66856;SDS011;53766;50.280;19.160;2023-05-10T13:55:37;3.78;;;1.90;;
66856;SDS011;53766;50.280;19.160;2023-05-10T13:58:05;4.45;;;2.20;;
66856;SDS011;53766;50.280;19.160;2023-05-10T14:00:32;3.90;;;2.15;;
66856;SDS011;53766;50.280;19.160;2023-05-10T14:03:00;2.90;;;2.10;;
66856;SDS011;53766;50.280;19.160;2023-05-10T14:05:28;2.67;;;1.88;;
66856;SDS011;53766;50.280;19.160;2023-05-10T14:07:55;2.80;;;2.00;;
66856;SDS011;53766;50.280;19.160;2023-05-10T14:10:23;3.00;;;2.03;;
66856;SDS011;53766;50.280;19.160;2023-05-10T14:12:50;3.25;;;1.80;;
66856;SDS011;53766;50.280;19.160;2023-05-10T14:15:18;2.75;;;1.95;;
66856;SDS011;53766;50.280;19.160;2023-05-10T14:17:45;3.33;;;2.00;;
66856;SDS011;53766;50.280;19.160;2023-05-10T14:20:13;3.97;;;2.03;;
66856;SDS011;53766;50.280;19.160;2023-05-10T14:22:40;2.88;;;1.98;;
66856;SDS011;53766;50.280;19.160;2023-05-10T14:25:08;2.40;;;1.88;;
66856;SDS011;53766;50.280;19.160;2023-05-10T14:27:36;2.90;;;2.00;;
66856;SDS011;53766;50.280;19.160;2023-05-10T14:30:03;3.50;;;1.77;;
66856;SDS011;53766;50.280;19.160;2023-05-10T14:32:31;3.00;;;2.10;;
66856;SDS011;53766;50.280;19.160;2023-05-10T14:34:59;3.47;;;1.92;;
66856;SDS011;53766;50.280;19.160;2023-05-10T14:37:26;3.30;;;2.00;;
66856;SDS011;53766;50.280;19.160;2023-05-10T14:39:54;3.40;;;2.10;;
66856;SDS011;53766;50.280;19.160;2023-05-10T14:42:21;2.80;;;2.05;;
66856;SDS011;53766;50.280;19.160;2023-05-10T14:44:49;2.50;;;1.83;;
66856;SDS011;53766;50.280;19.160;2023-05-10T14:47:16;2.90;;;1.63;;
66856;SDS011;53766;50.280;19.160;2023-05-10T14:49:44;3.22;;;2.03;;
66856;SDS011;53766;50.280;19.160;2023-05-10T14:52:11;3.05;;;1.90;;
66856;SDS011;53766;50.280;19.160;2023-05-10T14:54:39;2.45;;;1.80;;
66856;SDS011;53766;50.280;19.160;2023-05-10T14:57:07;2.53;;;1.85;;
66856;SDS011;53766;50.280;19.160;2023-05-10T14:59:34;2.42;;;1.75;;
66856;SDS011;53766;50.280;19.160;2023-05-10T15:02:03;2.70;;;1.90;;
66856;SDS011;53766;50.280;19.160;2023-05-10T15:04:31;2.20;;;1.75;;
66856;SDS011;53766;50.280;19.160;2023-05-10T15:06:59;2.45;;;1.73;;
66856;SDS011;53766;50.280;19.160;2023-05-10T15:09:28;2.65;;;1.90;;
66856;SDS011;53766;50.280;19.160;2023-05-10T15:11:55;3.92;;;1.98;;
66856;SDS011;53766;50.280;19.160;2023-05-10T15:14:23;3.38;;;2.08;;
66856;SDS011;53766;50.280;19.160;2023-05-10T15:16:51;3.50;;;2.00;;